Time;durP1;ratioP1;P1;durP2;ratioP2;P2;SDS_P1;SDS_P2;PMS_P1;PMS_P2;Temp;Humidity;BMP_temperature;BMP_pressure;BME280_temperature;BME280_humidity;BME280_pressure;Samples;Min_cycle;Max_cycle;Signal;HPM_P1;HPM_P2
2022/01/03 00:00:15;;;;;;;6.05;1.38;;;;;;;12.07;68.57;100500.88;4964925;28;20448;-76
2022/01/03 00:02:43;;;;;;;4.57;1.58;;;;;;;12.16;67.76;100517.53;4968213;28;20395;-76
2022/01/03 00:05:09;;;;;;;9.50;1.58;;;;;;;12.21;67.43;100507.56;4954549;28;20416;-76
2022/01/03 00:07:40;;;;;;;4.10;1.55;;;;;;;12.15;67.68;100499.63;4970834;28;20420;-75
2022/01/03 00:10:07;;;;;;;4.30;1.92;;;;;;;12.14;67.82;100497.97;4972393;28;20882;-76
2022/01/03 00:12:33;;;;;;;6.30;1.42;;;;;;;12.07;67.54;100490.03;4972507;28;20447;-76
2022/01/03 00:14:59;;;;;;;6.20;1.60;;;;;;;12.07;67.75;100508.19;4972556;28;20393;-75
2022/01/03 00:17:24;;;;;;;5.22;1.50;;;;;;;12.07;67.63;100494.63;4971232;28;20412;-76
2022/01/03 00:19:49;;;;;;;6.13;1.57;;;;;;;12.10;67.50;100505.81;4949075;28;20507;-76
2022/01/03 00:22:19;;;;;;;7.93;1.93;;;;;;;12.13;67.39;100499.03;4972557;28;20400;-77
2022/01/03 00:24:56;;;;;;;7.10;2.13;;;;;;;12.16;67.15;100498.53;4956638;28;20536;-76
2022/01/03 00:27:28;;;;;;;4.73;1.50;;;;;;;12.20;66.72;100508.66;4972487;28;20424;-76
2022/01/03 00:29:53;;;;;;;10.02;2.20;;;;;;;12.31;66.33;100504.97;4972528;28;20396;-77
2022/01/03 00:32:22;;;;;;;4.72;1.92;;;;;;;12.29;66.42;100517.97;4970172;28;20404;-76
2022/01/03 00:34:53;;;;;;;7.05;1.67;;;;;;;12.25;66.73;100521.47;4971601;28;20447;-76
2022/01/03 00:37:22;;;;;;;7.00;2.33;;;;;;;12.24;66.74;100515.22;4972156;28;20411;-76
2022/01/03 00:39:50;;;;;;;6.73;1.87;;;;;;;12.23;66.19;100520.88;4971443;28;20501;-76
2022/01/03 00:42:16;;;;;;;4.97;1.27;;;;;;;12.31;66.18;100520.47;4972331;28;20392;-75
2022/01/03 00:44:46;;;;;;;6.57;1.53;;;;;;;12.36;65.69;100515.88;4972286;28;20752;-76
2022/01/03 00:47:11;;;;;;;7.00;2.00;;;;;;;12.31;65.70;100504.16;4970851;28;20776;-76
2022/01/03 00:49:40;;;;;;;4.55;1.60;;;;;;;12.37;65.58;100528.41;4972156;28;20405;-76
2022/01/03 00:52:05;;;;;;;6.25;2.15;;;;;;;12.27;66.06;100536.44;4972424;28;20474;-75
2022/01/03 00:54:31;;;;;;;7.73;2.50;;;;;;;12.28;66.13;100538.06;4971092;28;20876;-76
2022/01/03 00:57:02;;;;;;;7.83;2.03;;;;;;;12.29;66.38;100526.13;4970943;28;20408;-76
2022/01/03 00:59:36;;;;;;;9.73;2.08;;;;;;;12.26;66.77;100517.66;4972255;28;20400;-76
2022/01/03 01:02:02;;;;;;;5.93;1.60;;;;;;;12.10;67.34;100515.84;4966729;28;20418;-76
2022/01/03 01:04:28;;;;;;;9.05;1.50;;;;;;;12.09;67.36;100496.00;4959268;28;20404;-76
2022/01/03 01:06:56;;;;;;;3.35;1.30;;;;;;;12.24;66.67;100514.38;4972268;28;20419;-75
2022/01/03 01:09:24;;;;;;;4.40;1.20;;;;;;;12.14;67.10;100520.53;4972059;28;20396;-76
2022/01/03 01:11:52;;;;;;;6.75;1.70;;;;;;;12.13;67.10;100526.19;4971241;28;20784;-76
2022/01/03 01:14:18;;;;;;;7.38;1.70;;;;;;;12.31;66.18;100525.88;4968335;28;20814;-76
2022/01/03 01:16:44;;;;;;;6.47;1.50;;;;;;;12.41;65.92;100528.72;4970389;28;20416;-75
2022/01/03 01:19:10;;;;;;;7.22;1.70;;;;;;;12.41;65.88;100531.44;4973854;28;20453;-77
2022/01/03 01:21:36;;;;;;;3.97;1.35;;;;;;;12.41;65.75;100548.53;4975448;28;20899;-76
2022/01/03 01:24:02;;;;;;;6.50;1.73;;;;;;;12.41;66.18;100553.19;4975584;28;20400;-77
2022/01/03 01:29:12;;;;;;;6.43;1.42;;;;;;;12.32;66.47;100546.53;4973202;28;20486;-76
2022/01/03 01:31:50;;;;;;;9.10;1.73;;;;;;;12.27;66.43;100538.34;4969695;28;20408;-76
2022/01/03 01:34:25;;;;;;;5.82;1.50;;;;;;;12.15;67.04;100537.66;4975449;28;20400;-76
2022/01/03 01:36:52;;;;;;;5.65;1.90;;;;;;;12.13;66.87;100535.19;4957707;28;20503;-76
2022/01/03 01:39:20;;;;;;;6.07;1.50;;;;;;;12.31;66.47;100542.19;4974954;28;20397;-76
2022/01/03 01:41:46;;;;;;;8.13;1.80;;;;;;;12.28;66.55;100534.56;4975235;28;20392;-77
2022/01/03 01:44:12;;;;;;;7.22;1.95;;;;;;;12.30;66.02;100543.25;4964589;28;20762;-76
2022/01/03 01:46:53;;;;;;;8.75;1.52;;;;;;;12.26;66.54;100536.69;4972664;28;21008;-76
2022/01/03 01:49:21;;;;;;;5.90;2.17;;;;;;;12.25;66.43;100545.94;4959562;28;20442;-77
2022/01/03 01:51:49;;;;;;;4.60;1.38;;;;;;;12.40;66.07;100544.22;4974935;28;20428;-76
2022/01/03 01:54:17;;;;;;;6.85;1.90;;;;;;;12.36;65.88;100544.97;4974946;28;20455;-76
2022/01/03 01:57:09;;;;;;;7.90;1.67;;;;;;;12.28;66.51;100545.41;4974802;28;20408;-76
2022/01/03 01:59:37;;;;;;;7.93;1.35;;;;;;;12.21;66.92;100548.34;4972263;28;20498;-77
2022/01/03 02:02:07;;;;;;;7.47;1.58;;;;;;;12.19;66.98;100545.03;4972036;28;20463;-76
2022/01/03 02:04:48;;;;;;;5.50;2.10;;;;;;;12.25;66.93;100545.94;4963703;28;20426;-76
2022/01/03 02:07:45;;;;;;;6.50;1.58;;;;;;;12.16;67.14;100539.28;4972337;28;20808;-76
2022/01/03 02:10:13;;;;;;;7.93;2.05;;;;;;;12.20;66.99;100541.25;4953519;28;20423;-77
2022/01/03 02:12:46;;;;;;;3.47;1.30;;;;;;;12.19;67.03;100555.06;4972029;28;20773;-76
2022/01/03 02:15:14;;;;;;;6.30;1.58;;;;;;;12.25;66.69;100554.09;4963655;28;20815;-77
2022/01/03 02:17:44;;;;;;;7.85;1.80;;;;;;;12.33;66.04;100564.50;4957512;28;20434;-76
2022/01/03 02:20:18;;;;;;;8.38;1.80;;;;;;;12.31;66.01;100555.78;4973944;28;20848;-76
2022/01/03 02:22:44;;;;;;;7.88;1.65;;;;;;;12.29;66.09;100566.88;4974688;28;20428;-76
2022/01/03 02:25:12;;;;;;;5.07;1.52;;;;;;;12.22;66.75;100555.38;4973029;28;20384;-77
2022/01/03 02:27:38;;;;;;;7.85;1.63;;;;;;;12.25;66.33;100564.94;4966359;28;20412;-77
2022/01/03 02:30:10;;;;;;;8.02;1.95;;;;;;;12.24;66.06;100569.56;4954401;28;20412;-76
2022/01/03 02:32:35;;;;;;;7.28;1.52;;;;;;;12.22;66.48;100563.53;4958712;28;20392;-77
2022/01/03 02:35:01;;;;;;;9.13;1.93;;;;;;;12.28;65.95;100564.44;4974219;28;20411;-76
2022/01/03 02:37:26;;;;;;;8.77;1.87;;;;;;;12.19;66.22;100566.75;4974289;28;20729;-76
2022/01/03 02:39:53;;;;;;;5.95;1.50;;;;;;;12.13;66.89;100562.34;4972840;28;20400;-76
2022/01/03 02:42:23;;;;;;;9.70;1.80;;;;;;;12.08;67.15;100556.84;4971258;28;20466;-77
2022/01/03 02:45:14;;;;;;;8.20;1.95;;;;;;;12.08;67.05;100569.63;4968548;28;20905;-76
2022/01/03 02:47:40;;;;;;;5.45;1.67;;;;;;;12.05;67.12;100572.84;4968440;28;20451;-76
2022/01/03 02:50:07;;;;;;;6.68;2.03;;;;;;;12.03;67.39;100569.53;4973923;28;20428;-76
2022/01/03 02:52:33;;;;;;;8.18;1.90;;;;;;;12.01;67.39;100568.97;4973938;28;20484;-76
2022/01/03 02:54:59;;;;;;;5.35;1.83;;;;;;;11.96;67.73;100569.72;4971837;28;20503;-77
2022/01/03 02:57:24;;;;;;;7.40;2.10;;;;;;;11.97;67.81;100576.81;4972026;28;20409;-76
2022/01/03 02:59:57;;;;;;;8.97;2.47;;;;;;;12.01;67.81;100577.94;4973732;28;20392;-76
2022/01/03 03:02:24;;;;;;;8.47;1.97;;;;;;;12.01;67.65;100577.13;4973291;28;20412;-77
2022/01/03 03:04:57;;;;;;;11.95;1.70;;;;;;;12.03;67.50;100581.22;4973372;28;20763;-76
2022/01/03 03:07:24;;;;;;;8.63;1.80;;;;;;;12.04;67.81;100582.88;4973499;28;20420;-76
2022/01/03 03:09:50;;;;;;;6.17;2.07;;;;;;;11.94;68.12;100594.44;4953518;28;20416;-77
2022/01/03 03:12:15;;;;;;;8.30;1.67;;;;;;;11.95;67.60;100585.19;4960729;28;20448;-76
2022/01/03 03:14:41;;;;;;;8.20;2.30;;;;;;;11.96;67.55;100583.28;4972669;28;20491;-76
2022/01/03 03:17:06;;;;;;;8.40;1.93;;;;;;;11.97;67.77;100582.22;4973412;28;20427;-76
2022/01/03 03:19:31;;;;;;;9.45;2.05;;;;;;;11.95;67.56;100578.97;4973379;28;20784;-76
2022/01/03 03:21:57;;;;;;;7.10;1.87;;;;;;;11.89;68.01;100594.34;4973285;28;20397;-76
2022/01/03 03:24:22;;;;;;;9.70;1.77;;;;;;;11.83;68.25;100591.81;4971511;28;20500;-76
2022/01/03 03:26:48;;;;;;;9.90;1.77;;;;;;;11.82;67.99;100585.53;4972367;28;20475;-76
2022/01/03 03:29:13;;;;;;;9.10;2.60;;;;;;;11.84;68.23;100588.84;4971650;28;20431;-76
2022/01/03 03:31:39;;;;;;;7.33;2.17;;;;;;;11.80;68.03;100584.97;4970520;28;20408;-77
2022/01/03 03:34:05;;;;;;;6.00;2.10;;;;;;;11.76;68.42;100586.53;4973420;28;20455;-77
2022/01/03 03:36:31;;;;;;;6.78;1.80;;;;;;;11.73;68.13;100584.34;4973217;28;20404;-76
2022/01/03 03:38:56;;;;;;;9.40;2.20;;;;;;;11.72;68.44;100581.88;4969072;28;20416;-76
2022/01/03 03:41:21;;;;;;;7.87;2.60;;;;;;;11.70;68.54;100581.25;4959405;28;20392;-76
2022/01/03 03:43:47;;;;;;;10.77;2.07;;;;;;;11.65;68.62;100589.34;4973112;28;20532;-77
2022/01/03 03:46:12;;;;;;;6.63;2.00;;;;;;;11.68;68.69;100583.41;4966851;28;20389;-76
2022/01/03 03:48:39;;;;;;;8.43;2.10;;;;;;;11.68;68.48;100586.97;4972967;28;20885;-77
2022/01/03 03:51:04;;;;;;;10.20;2.42;;;;;;;11.70;68.29;100578.53;4973009;28;20492;-76
2022/01/03 03:53:29;;;;;;;12.00;2.50;;;;;;;11.72;68.14;100579.16;4971142;28;20872;-76
2022/01/03 03:55:55;;;;;;;9.40;2.03;;;;;;;11.70;68.50;100582.13;4972378;28;20431;-76
2022/01/03 03:58:20;;;;;;;11.00;2.50;;;;;;;11.68;68.83;100584.25;4954838;28;20407;-76
2022/01/03 04:00:45;;;;;;;11.43;2.55;;;;;;;11.65;69.08;100586.63;4972623;28;20447;-77
2022/01/03 04:03:10;;;;;;;10.63;2.27;;;;;;;11.64;69.03;100579.53;4972817;28;20415;-76
2022/01/03 04:05:36;;;;;;;10.73;2.27;;;;;;;11.60;69.05;100581.94;4972761;28;20404;-77
2022/01/03 04:08:01;;;;;;;8.83;2.23;;;;;;;11.62;69.16;100578.97;4972723;28;20761;-76
2022/01/03 04:10:27;;;;;;;7.95;1.70;;;;;;;11.61;69.00;100582.75;4960708;28;20429;-76
2022/01/03 04:12:52;;;;;;;9.63;1.47;;;;;;;11.53;69.11;100597.56;4972265;28;20400;-77
2022/01/03 04:15:17;;;;;;;6.32;1.38;;;;;;;11.37;72.33;100582.94;4972654;28;20388;-77
2022/01/03 04:17:42;;;;;;;7.73;2.10;;;;;;;11.14;75.60;100574.13;4952682;28;20408;-76
2022/01/03 04:20:09;;;;;;;6.73;1.20;;;;;;;10.76;78.30;100572.94;4971819;28;20443;-77
2022/01/03 04:22:35;;;;;;;6.63;1.47;;;;;;;10.60;80.03;100573.72;4972481;28;20397;-77
2022/01/03 04:25:00;;;;;;;6.20;1.23;;;;;;;10.47;81.02;100578.59;4972365;28;20729;-76
2022/01/03 04:27:25;;;;;;;5.67;1.80;;;;;;;10.45;81.45;100575.31;4971940;28;20896;-77
2022/01/03 04:29:51;;;;;;;7.57;1.60;;;;;;;10.34;81.83;100572.38;4972268;28;20427;-76
2022/01/03 04:32:17;;;;;;;5.03;1.40;;;;;;;10.28;81.82;100577.94;4970299;28;20420;-76
2022/01/03 04:34:42;;;;;;;4.68;0.90;;;;;;;10.18;82.33;100570.44;4971419;28;20407;-77
2022/01/03 04:37:08;;;;;;;6.93;2.20;;;;;;;10.15;82.58;100580.91;4971460;28;20451;-76
2022/01/03 04:39:33;;;;;;;6.35;1.48;;;;;;;10.18;82.44;100591.28;4972024;28;20453;-76
2022/01/03 04:41:59;;;;;;;8.00;1.17;;;;;;;10.15;82.39;100587.16;4969600;28;20495;-76
2022/01/03 04:44:25;;;;;;;6.20;1.47;;;;;;;10.19;82.40;100598.34;4969904;28;20416;-76
2022/01/03 04:46:52;;;;;;;8.73;1.50;;;;;;;10.18;82.29;100599.41;4971886;28;20453;-76
2022/01/03 04:49:18;;;;;;;6.25;1.63;;;;;;;10.18;82.34;100607.53;4941044;28;20768;-76
2022/01/03 04:51:43;;;;;;;7.27;1.70;;;;;;;10.20;82.37;100606.25;4933940;29;20407;-76
2022/01/03 04:54:08;;;;;;;9.33;1.50;;;;;;;10.20;82.61;100594.59;4924813;29;20438;-76
2022/01/03 04:56:34;;;;;;;9.00;1.50;;;;;;;10.20;82.50;100598.13;4937192;29;20419;-76
2022/01/03 04:59:00;;;;;;;6.33;1.67;;;;;;;10.29;82.11;100582.31;4934758;29;20434;-76
2022/01/03 05:01:25;;;;;;;10.48;2.63;;;;;;;10.28;81.98;100589.59;4935844;29;20732;-76
2022/01/03 05:03:52;;;;;;;13.57;2.27;;;;;;;10.29;82.05;100590.44;4937152;29;20462;-76
2022/01/03 05:06:18;;;;;;;8.23;1.98;;;;;;;10.38;81.67;100589.81;4935132;29;20412;-76
2022/01/03 05:08:43;;;;;;;7.43;1.97;;;;;;;10.39;81.52;100582.50;4937386;29;20756;-76
2022/01/03 05:11:09;;;;;;;9.73;1.80;;;;;;;10.44;80.99;100584.50;4934867;29;20487;-76
2022/01/03 05:13:34;;;;;;;6.83;2.10;;;;;;;10.49;80.43;100584.59;4930553;29;20930;-76
2022/01/03 05:16:00;;;;;;;7.93;1.93;;;;;;;10.55;79.91;100570.06;4930810;29;20927;-76
2022/01/03 05:18:26;;;;;;;8.05;1.85;;;;;;;10.53;79.60;100575.75;4933647;29;20415;-76
2022/01/03 05:20:51;;;;;;;11.00;2.13;;;;;;;10.55;79.16;100559.25;4936843;29;20971;-77
2022/01/03 05:23:17;;;;;;;10.87;1.93;;;;;;;10.51;79.31;100561.59;4935593;29;20816;-76
2022/01/03 05:25:43;;;;;;;8.23;2.30;;;;;;;10.52;79.34;100557.84;4937209;29;20400;-77
2022/01/03 05:28:08;;;;;;;14.93;2.40;;;;;;;10.56;78.92;100567.13;4936946;29;20852;-76
2022/01/03 05:30:33;;;;;;;10.93;2.43;;;;;;;10.59;78.82;100563.13;4936330;29;20412;-76
2022/01/03 05:33:00;;;;;;;10.23;1.70;;;;;;;10.58;79.04;100567.72;4937040;29;20387;-76
2022/01/03 05:35:25;;;;;;;9.70;1.90;;;;;;;10.52;79.37;100574.09;4935737;29;20436;-77
2022/01/03 05:37:51;;;;;;;9.63;2.33;;;;;;;10.55;79.15;100570.91;4928726;29;20432;-76
2022/01/03 05:40:16;;;;;;;9.90;2.20;;;;;;;10.53;79.36;100577.63;4928121;29;20483;-76
2022/01/03 05:42:44;;;;;;;15.60;3.43;;;;;;;10.48;79.33;100585.66;4936763;29;20455;-76
2022/01/03 05:45:09;;;;;;;9.15;2.58;;;;;;;10.46;79.59;100591.34;4918758;29;20412;-76
2022/01/03 05:47:40;;;;;;;12.50;2.55;;;;;;;10.47;79.75;100590.28;4936609;29;20427;-76
2022/01/03 05:50:06;;;;;;;11.98;2.10;;;;;;;10.51;79.59;100588.72;4932981;29;20454;-77
2022/01/03 05:52:33;;;;;;;12.43;2.28;;;;;;;10.53;78.90;100592.00;4936420;29;20407;-76
2022/01/03 05:54:58;;;;;;;12.60;3.38;;;;;;;10.54;79.04;100582.81;4935177;29;20412;-77
2022/01/03 05:57:24;;;;;;;8.43;3.92;;;;;;;10.48;79.24;100585.66;4936631;29;20901;-77
2022/01/03 05:59:49;;;;;;;13.93;3.73;;;;;;;10.49;79.31;100590.00;4936414;29;20396;-77
2022/01/03 06:02:14;;;;;;;27.23;9.33;;;;;;;10.54;79.00;100582.81;4933655;29;20447;-76
2022/01/03 06:07:18;;;;;;;8.15;1.80;;;;;;;10.58;78.69;100583.97;4936283;29;20446;-76
2022/01/03 06:09:43;;;;;;;11.75;2.67;;;;;;;10.56;78.24;100577.16;4935345;29;20408;-76
2022/01/03 06:12:08;;;;;;;14.90;5.05;;;;;;;10.55;77.95;100573.63;4933251;29;20510;-77
2022/01/03 06:14:34;;;;;;;10.43;3.20;;;;;;;10.59;77.66;100576.66;4929407;29;20510;-76
2022/01/03 06:17:00;;;;;;;8.67;2.60;;;;;;;10.63;77.82;100578.66;4934962;29;20474;-77
2022/01/03 06:19:26;;;;;;;11.23;2.83;;;;;;;10.64;77.67;100577.56;4935977;29;20780;-76
2022/01/03 06:21:52;;;;;;;14.88;4.20;;;;;;;10.65;77.61;100557.56;4934211;29;20412;-76
2022/01/03 06:24:18;;;;;;;8.63;2.50;;;;;;;10.65;77.52;100562.13;4935586;29;20427;-77
2022/01/03 06:26:45;;;;;;;13.05;2.72;;;;;;;10.65;77.55;100560.25;4935761;29;20415;-76
2022/01/03 06:29:12;;;;;;;12.68;3.15;;;;;;;10.68;77.14;100562.47;4935136;29;20938;-76
2022/01/03 06:31:38;;;;;;;10.77;3.47;;;;;;;10.70;76.98;100564.97;4934421;29;20431;-76
2022/01/03 06:34:04;;;;;;;12.15;2.80;;;;;;;10.74;76.67;100557.97;4935559;29;20473;-76
2022/01/03 06:36:30;;;;;;;14.00;3.08;;;;;;;10.78;76.11;100557.25;4935501;29;20401;-76
2022/01/03 06:38:56;;;;;;;12.52;2.80;;;;;;;10.77;76.24;100561.00;4935821;29;20398;-76
2022/01/03 06:41:22;;;;;;;10.52;2.42;;;;;;;10.76;76.20;100553.16;4928497;29;20478;-76
2022/01/03 06:43:48;;;;;;;11.27;2.60;;;;;;;10.76;76.15;100559.38;4931264;29;20510;-76
2022/01/03 06:46:13;;;;;;;10.80;2.47;;;;;;;10.76;76.26;100545.00;4934809;29;20472;-76
2022/01/03 06:48:38;;;;;;;8.67;2.40;;;;;;;10.75;75.99;100549.59;4931294;29;20632;-76
2022/01/03 06:51:04;;;;;;;8.53;2.40;;;;;;;10.75;75.89;100541.47;4920553;29;20466;-77
2022/01/03 06:53:29;;;;;;;13.00;3.17;;;;;;;10.74;75.80;100528.97;4931833;29;20436;-77
2022/01/03 06:55:54;;;;;;;12.63;3.43;;;;;;;10.75;75.79;100530.63;4931958;29;20506;-77
2022/01/03 06:58:20;;;;;;;15.23;3.10;;;;;;;10.75;75.74;100529.81;4938655;28;20479;-76
2022/01/03 07:00:45;;;;;;;8.73;2.43;;;;;;;10.68;75.99;100543.50;4934530;29;20423;-77
2022/01/03 07:03:11;;;;;;;12.33;2.30;;;;;;;10.64;76.47;100552.34;4935153;29;20502;-76
2022/01/03 07:05:36;;;;;;;13.33;3.23;;;;;;;10.61;76.42;100548.25;4929316;29;20780;-76
2022/01/03 07:08:01;;;;;;;8.97;2.83;;;;;;;10.63;76.58;100556.16;4924886;29;20438;-77
2022/01/03 07:10:27;;;;;;;9.17;2.93;;;;;;;10.60;76.85;100567.47;4929244;29;20918;-77
2022/01/03 07:12:53;;;;;;;13.97;2.50;;;;;;;10.57;77.88;100565.25;4932146;29;20426;-77
2022/01/03 07:20:50;;;;;;;14.55;3.00;;;;;;;10.32;81.47;100560.97;4929270;29;21101;-77
2022/01/03 07:23:17;;;;;;;15.05;3.10;;;;;;;10.22;82.21;100555.34;4925988;29;20424;-76
2022/01/03 07:25:44;;;;;;;10.02;2.63;;;;;;;10.16;82.40;100540.06;4927120;29;20455;-77
2022/01/03 07:28:09;;;;;;;12.00;3.28;;;;;;;10.12;82.50;100536.16;4930988;29;20431;-77
2022/01/03 07:30:37;;;;;;;11.60;2.30;;;;;;;10.19;82.44;100536.88;4915643;29;20446;-76
2022/01/03 07:33:02;;;;;;;9.30;2.67;;;;;;;10.21;82.49;100533.91;4925859;29;20493;-76
2022/01/03 07:35:28;;;;;;;10.90;2.70;;;;;;;10.12;82.70;100533.44;4929361;29;20415;-77
2022/01/03 07:37:53;;;;;;;10.17;3.30;;;;;;;10.13;82.93;100528.88;4927784;29;20844;-76
2022/01/03 07:40:19;;;;;;;11.33;2.40;;;;;;;10.12;83.09;100532.63;4926342;29;20430;-76
2022/01/03 07:42:45;;;;;;;14.40;3.95;;;;;;;10.17;82.87;100536.31;4918685;29;20411;-76
2022/01/03 07:45:11;;;;;;;11.80;2.07;;;;;;;10.30;82.36;100543.34;4924562;29;20487;-77
2022/01/03 07:47:37;;;;;;;8.13;1.90;;;;;;;10.35;82.16;100536.13;4926756;29;20432;-76
2022/01/03 07:50:04;;;;;;;14.23;2.40;;;;;;;10.32;82.23;100530.34;4928300;29;20431;-76
2022/01/03 07:52:29;;;;;;;13.63;2.30;;;;;;;10.32;82.13;100528.47;4930816;29;20412;-76
2022/01/03 07:54:55;;;;;;;15.27;2.20;;;;;;;10.32;82.34;100538.47;4925136;29;20432;-76
2022/01/03 07:57:20;;;;;;;10.43;2.45;;;;;;;10.23;82.08;100535.34;4924028;29;20521;-75
2022/01/03 07:59:46;;;;;;;10.27;1.60;;;;;;;10.18;82.45;100524.41;4922661;29;20435;-76
2022/01/03 08:02:12;;;;;;;10.18;2.47;;;;;;;10.16;82.30;100529.25;4905130;29;20510;-76
2022/01/03 08:04:38;;;;;;;11.23;2.45;;;;;;;10.19;82.24;100527.94;4925119;29;20437;-76
2022/01/03 08:07:04;;;;;;;10.50;2.63;;;;;;;10.22;81.89;100541.00;4908861;29;20488;-75
2022/01/03 08:09:29;;;;;;;8.43;2.37;;;;;;;10.18;82.02;100534.41;4922304;29;20422;-76
2022/01/03 08:11:55;;;;;;;12.80;2.07;;;;;;;10.22;81.92;100539.09;4923579;29;20411;-76
2022/01/03 08:14:21;;;;;;;11.93;2.13;;;;;;;10.22;82.01;100524.75;4923551;29;20478;-77
2022/01/03 08:16:46;;;;;;;10.45;2.35;;;;;;;10.29;81.54;100538.97;4924494;29;20426;-75
2022/01/03 08:19:11;;;;;;;10.90;2.20;;;;;;;10.33;81.20;100545.56;4920483;29;20429;-77
2022/01/03 08:21:36;;;;;;;9.60;3.10;;;;;;;10.33;81.04;100542.84;4927243;29;20502;-76
2022/01/03 08:24:02;;;;;;;10.20;2.10;;;;;;;10.36;80.87;100548.59;4928162;29;20414;-77
2022/01/03 08:26:27;;;;;;;13.10;2.50;;;;;;;10.40;80.70;100544.34;4930723;29;20427;-77
2022/01/03 08:28:53;;;;;;;11.87;3.00;;;;;;;10.46;80.27;100547.16;4923356;29;20747;-77
2022/01/03 08:31:21;;;;;;;10.30;2.45;;;;;;;10.49;79.81;100549.38;4926739;29;20411;-77
2022/01/03 08:33:47;;;;;;;10.60;2.90;;;;;;;10.46;79.82;100553.41;4924439;29;20947;-77
2022/01/03 08:36:13;;;;;;;8.65;2.63;;;;;;;10.49;79.92;100550.19;4923530;29;20524;-77
2022/01/03 08:38:38;;;;;;;17.05;5.70;;;;;;;10.50;79.54;100556.44;4932559;29;20460;-78
2022/01/03 08:41:04;;;;;;;13.95;4.95;;;;;;;10.62;79.22;100551.78;4921502;29;20445;-76
2022/01/03 08:43:29;;;;;;;10.50;3.23;;;;;;;10.59;79.22;100544.97;4923171;29;20470;-76
2022/01/03 08:45:55;;;;;;;14.73;4.57;;;;;;;10.64;78.97;100549.66;4924124;29;20462;-76
2022/01/03 08:48:20;;;;;;;10.77;2.70;;;;;;;10.65;78.81;100554.84;4930572;29;20966;-75
2022/01/03 08:50:45;;;;;;;7.07;2.00;;;;;;;10.72;78.20;100544.69;4935511;29;20422;-78
2022/01/03 08:53:11;;;;;;;8.50;2.20;;;;;;;10.72;78.33;100535.72;4917960;29;20473;-77
2022/01/03 08:55:36;;;;;;;8.87;2.47;;;;;;;10.75;78.41;100535.22;4938888;29;20892;-77
2022/01/03 08:58:02;;;;;;;9.60;2.70;;;;;;;10.74;78.16;100533.56;4955453;29;20409;-77
2022/01/03 09:00:28;;;;;;;5.43;1.57;;;;;;;10.75;78.20;100525.22;4955271;29;20409;-77
2022/01/03 09:02:53;;;;;;;9.07;2.58;;;;;;;10.79;78.03;100528.25;4954095;28;20447;-77
2022/01/03 09:05:18;;;;;;;14.40;2.23;;;;;;;10.77;77.92;100527.66;4955409;28;20410;-76
2022/01/03 09:07:44;;;;;;;9.40;2.22;;;;;;;10.77;77.71;100522.25;4954993;28;20433;-76
2022/01/03 09:10:09;;;;;;;11.33;3.37;;;;;;;10.82;77.01;100527.75;4956441;28;20901;-77
2022/01/03 09:12:35;;;;;;;10.68;2.53;;;;;;;10.91;76.22;100524.41;4956465;29;20815;-76
2022/01/03 09:15:01;;;;;;;8.20;1.50;;;;;;;10.83;76.98;100515.88;4956521;29;20916;-77
2022/01/03 09:17:27;;;;;;;7.43;1.67;;;;;;;10.85;76.88;100519.13;4956004;29;20496;-77
2022/01/03 09:19:53;;;;;;;10.53;1.87;;;;;;;10.82;77.00;100525.06;4956326;29;20745;-77
2022/01/03 09:22:23;;;;;;;6.22;1.65;;;;;;;10.81;76.97;100524.22;4942441;29;20475;-76
2022/01/03 09:30:11;;;;;;;10.75;2.47;;;;;;;10.98;75.94;100520.72;4952258;28;20422;-76
2022/01/03 09:32:36;;;;;;;9.07;2.78;;;;;;;11.04;76.23;100517.84;4949588;29;20545;-76
2022/01/03 09:35:03;;;;;;;5.97;2.00;;;;;;;11.07;75.74;100517.34;4955587;29;20401;-77
2022/01/03 09:37:28;;;;;;;8.50;2.38;;;;;;;11.10;75.62;100518.75;4956108;29;20489;-77
2022/01/03 09:39:54;;;;;;;8.77;2.27;;;;;;;11.15;75.28;100514.22;4951187;28;20494;-76
2022/01/03 09:42:27;;;;;;;13.32;4.40;;;;;;;11.12;74.83;100513.91;4952596;29;20875;-76
2022/01/03 09:44:53;;;;;;;12.60;2.65;;;;;;;11.10;75.21;100507.91;4904622;29;20423;-77
2022/01/03 09:47:20;;;;;;;9.25;2.35;;;;;;;11.16;74.54;100517.75;4946519;28;20417;-77
2022/01/03 09:49:47;;;;;;;8.80;2.60;;;;;;;11.21;74.57;100523.25;4949976;28;20493;-76
2022/01/03 09:52:15;;;;;;;13.48;3.33;;;;;;;11.22;74.68;100522.19;4950296;29;20424;-77
2022/01/03 09:54:41;;;;;;;11.25;2.47;;;;;;;11.23;74.38;100532.00;4945806;29;20488;-77
2022/01/03 09:57:07;;;;;;;8.70;2.30;;;;;;;11.28;74.50;100532.88;4947996;29;20421;-77
2022/01/03 09:59:34;;;;;;;12.38;2.97;;;;;;;11.30;74.17;100529.91;4955102;28;20414;-77
2022/01/03 10:02:00;;;;;;;7.80;2.78;;;;;;;11.22;74.71;100530.34;4949838;28;20909;-76
2022/01/03 10:04:26;;;;;;;11.25;2.22;;;;;;;11.24;74.58;100536.31;4952716;29;20411;-77
2022/01/03 10:06:51;;;;;;;7.35;2.38;;;;;;;11.27;74.47;100531.22;4954636;29;20417;-77
2022/01/03 10:09:20;;;;;;;12.23;2.80;;;;;;;11.28;74.70;100532.06;4955302;29;20401;-77
2022/01/03 10:11:46;;;;;;;10.75;2.55;;;;;;;11.18;74.82;100532.72;4954785;28;20537;-77
2022/01/03 10:14:12;;;;;;;8.85;2.20;;;;;;;11.17;74.63;100522.94;4954916;28;20453;-77
2022/01/03 10:16:39;;;;;;;8.10;2.53;;;;;;;11.15;74.76;100527.78;4955333;29;20481;-77
2022/01/03 10:19:04;;;;;;;11.47;2.23;;;;;;;11.14;74.69;100520.72;4955286;29;20866;-77
2022/01/03 10:21:51;;;;;;;9.70;3.00;;;;;;;11.16;74.41;100507.75;4953635;28;20448;-76
2022/01/03 10:24:18;;;;;;;7.90;2.13;;;;;;;11.21;74.47;100518.66;4935575;28;20768;-76
2022/01/03 10:26:52;;;;;;;8.60;1.95;;;;;;;11.29;73.80;100518.25;4936220;28;20430;-77
2022/01/03 10:29:20;;;;;;;8.63;2.53;;;;;;;11.34;73.63;100515.59;4940440;28;20512;-77
2022/01/03 10:31:49;;;;;;;9.32;1.98;;;;;;;11.44;72.96;100515.75;4952227;28;20424;-77
2022/01/03 10:34:17;;;;;;;11.45;2.85;;;;;;;11.50;73.19;100516.66;4955364;29;20454;-77
2022/01/03 10:36:45;;;;;;;7.67;2.37;;;;;;;11.51;72.83;100514.75;4955047;29;20413;-77
2022/01/03 10:39:15;;;;;;;7.82;2.10;;;;;;;11.56;72.46;100512.13;4955034;29;20402;-77
2022/01/03 10:41:41;;;;;;;8.57;1.92;;;;;;;11.66;72.49;100515.78;4950223;28;20412;-77
2022/01/03 10:44:07;;;;;;;8.07;2.45;;;;;;;11.63;72.64;100510.03;4953412;28;20409;-76
2022/01/03 10:46:37;;;;;;;10.00;3.00;;;;;;;11.56;72.67;100507.50;4949345;28;20421;-76
2022/01/03 10:49:16;;;;;;;6.43;2.72;;;;;;;11.56;73.04;100514.84;4953808;28;20409;-77
2022/01/03 10:51:44;;;;;;;8.55;2.55;;;;;;;11.60;72.83;100508.66;4953357;28;20494;-76
2022/01/03 10:54:12;;;;;;;8.13;1.75;;;;;;;11.53;73.10;100504.47;4935374;29;20445;-76
2022/01/03 10:56:42;;;;;;;10.50;1.90;;;;;;;11.52;73.38;100500.13;4952428;28;20508;-76
2022/01/03 10:59:14;;;;;;;9.73;2.60;;;;;;;11.44;73.56;100499.47;4946973;28;20498;-77
2022/01/03 11:01:41;;;;;;;5.35;1.90;;;;;;;11.49;73.04;100506.06;4948386;28;20421;-77
2022/01/03 11:04:07;;;;;;;8.52;2.60;;;;;;;11.54;73.37;100487.94;4950102;28;20421;-77
2022/01/03 11:06:49;;;;;;;8.73;2.20;;;;;;;11.63;73.08;100489.16;4945903;28;20438;-77
2022/01/03 11:12:16;;;;;;;6.00;2.17;;;;;;;11.55;73.55;100494.19;4950059;28;20409;-77
2022/01/03 11:14:42;;;;;;;7.22;2.35;;;;;;;11.53;73.55;100489.00;4956958;28;20455;-77
2022/01/03 11:17:28;;;;;;;10.13;2.55;;;;;;;11.49;74.44;100487.06;4953309;28;20412;-77
2022/01/03 11:19:59;;;;;;;8.68;2.42;;;;;;;11.50;74.87;100489.50;4943741;29;20405;-77
2022/01/03 11:22:43;;;;;;;7.20;2.00;;;;;;;11.46;74.78;100482.94;4953540;28;20967;-77
2022/01/03 11:25:09;;;;;;;6.93;3.05;;;;;;;11.56;74.41;100471.41;4946355;28;20451;-77
2022/01/03 11:27:39;;;;;;;13.63;5.28;;;;;;;11.48;74.95;100469.94;4945875;29;20425;-77
2022/01/03 11:30:11;;;;;;;16.20;6.13;;;;;;;11.43;75.45;100469.88;4952316;29;20503;-77
2022/01/03 11:32:40;;;;;;;9.68;3.20;;;;;;;11.51;75.11;100465.91;4954029;29;20545;-77
2022/01/03 11:35:06;;;;;;;15.27;4.93;;;;;;;11.60;75.13;100448.09;4952995;28;20401;-77
2022/01/03 11:37:35;;;;;;;8.75;2.65;;;;;;;11.70;74.70;100442.81;4953807;29;20424;-77
2022/01/03 11:40:03;;;;;;;9.10;3.33;;;;;;;11.75;73.49;100442.91;4935183;29;20417;-77